Time,TemperatureF,DewpointF,PressureIn,WindDirection,WindDirectionDegrees,WindSpeedMPH,WindSpeedGustMPH,Humidity,HourlyPrecipIn,Conditions,Clouds,dailyrainin,SoftwareType,DateUTC
2013-06-05 00:02:00,41.0,33.0,30.21,NNE,28,2.0,-999.0,72,-99.99,,,-99.99,,2013-06-05 06:02:00,
2013-06-05 00:11:00,41.0,33.0,30.21,NNE,28,2.0,-999.0,72,-99.99,,,-99.99,,2013-06-05 06:11:00,
2013-06-05 00:22:00,41.0,33.0,30.22,NNE,28,1.0,-999.0,72,-99.99,,,-99.99,,2013-06-05 06:22:00,
2013-06-05 00:32:00,42.0,33.0,30.22,NNE,28,3.0,-999.0,70,-99.99,,,-99.99,,2013-06-05 06:32:00,
2013-06-05 00:42:00,42.0,33.0,30.22,NNE,28,3.0,-999.0,70,-99.99,,,-99.99,,2013-06-05 06:42:00,
2013-06-05 00:52:00,40.0,32.0,30.22,NNE,28,1.0,-999.0,73,-99.99,,,-99.99,,2013-06-05 06:52:00,
2013-06-05 01:01:00,40.0,32.0,30.22,NNW,345,1.0,-999.0,74,-99.99,,,-99.99,,2013-06-05 07:01:00,
2013-06-05 01:12:00,40.0,32.0,30.22,NNW,345,1.0,-999.0,74,-99.99,,,-99.99,,2013-06-05 07:12:00,
2013-06-05 01:22:00,39.0,31.0,30.22,NNW,345,0.0,-999.0,74,-99.99,,,-99.99,,2013-06-05 07:22:00,
2013-06-05 01:32:00,38.0,31.0,30.22,NNW,345,0.0,-999.0,75,-99.99,,,-99.99,,2013-06-05 07:32:00,
2013-06-05 01:42:00,38.0,31.0,30.22,NNW,345,0.0,-999.0,75,-99.99,,,-99.99,,2013-06-05 07:42:00,
2013-06-05 01:52:00,38.0,31.0,30.22,NNW,345,0.0,-999.0,75,-99.99,,,-99.99,,2013-06-05 07:52:00,
2013-06-05 02:01:00,37.0,31.0,30.23,NNW,345,0.0,-999.0,80,-99.99,,,-99.99,,2013-06-05 08:01:00,
2013-06-05 02:12:00,37.0,31.0,30.23,NNW,345,0.0,-999.0,80,-99.99,,,-99.99,,2013-06-05 08:12:00,
2013-06-05 02:22:00,35.0,29.0,30.23,NNW,345,0.0,-999.0,78,-99.99,,,-99.99,,2013-06-05 08:22:00,
2013-06-05 02:31:00,35.0,30.0,30.23,NNW,345,0.0,-999.0,83,-99.99,,,-99.99,,2013-06-05 08:31:00,
2013-06-05 02:42:00,35.0,30.0,30.23,NNW,345,0.0,-999.0,83,-99.99,,,-99.99,,2013-06-05 08:42:00,
2013-06-05 02:52:00,37.0,31.0,30.23,NNW,345,0.0,-999.0,79,-99.99,,,-99.99,,2013-06-05 08:52:00,
2013-06-05 03:01:00,35.0,29.0,30.23,NNW,345,1.0,-999.0,79,-99.99,,,-99.99,,2013-06-05 09:01:00,
2013-06-05 03:11:00,35.0,29.0,30.23,NNW,345,1.0,-999.0,79,-99.99,,,-99.99,,2013-06-05 09:11:00,
2013-06-05 03:22:00,33.0,28.0,30.23,North,11,1.0,-999.0,82,-99.99,,,-99.99,,2013-06-05 09:22:00,
2013-06-05 03:32:00,32.0,28.0,30.23,North,11,0.0,-999.0,86,-99.99,,,-99.99,,2013-06-05 09:32:00,
2013-06-05 03:42:00,32.0,28.0,30.23,North,11,0.0,-999.0,86,-99.99,,,-99.99,,2013-06-05 09:42:00,
2013-06-05 03:53:00,32.0,29.0,30.23,North,11,0.0,-999.0,88,-99.99,,,-99.99,,2013-06-05 09:53:00,
2013-06-05 04:02:00,31.0,27.0,30.23,North,11,0.0,-999.0,84,-99.99,,,-99.99,,2013-06-05 10:02:00,
2013-06-05 04:12:00,31.0,27.0,30.23,North,11,0.0,-999.0,84,-99.99,,,-99.99,,2013-06-05 10:12:00,
2013-06-05 04:22:00,31.0,28.0,30.24,North,11,0.0,-999.0,88,-99.99,,,-99.99,,2013-06-05 10:22:00,
2013-06-05 04:33:00,32.0,29.0,30.24,NE,36,1.0,-999.0,89,-99.99,,,-99.99,,2013-06-05 10:33:00,
2013-06-05 04:42:00,32.0,29.0,30.24,NE,36,1.0,-999.0,89,-99.99,,,-99.99,,2013-06-05 10:42:00,
2013-06-05 04:52:00,32.0,29.0,30.25,NE,36,0.0,-999.0,87,-99.99,,,-99.99,,2013-06-05 10:52:00,
2013-06-05 05:02:00,32.0,29.0,30.22,NE,36,0.0,-999.0,88,-99.99,,,-99.99,,2013-06-05 11:02:00,
2013-06-05 05:12:00,32.0,29.0,30.22,NE,36,0.0,-999.0,88,-99.99,,,-99.99,,2013-06-05 11:12:00,
2013-06-05 05:21:00,31.0,28.0,30.23,NE,36,0.0,-999.0,88,-99.99,,,-99.99,,2013-06-05 11:21:00,
2013-06-05 05:32:00,32.0,29.0,30.23,NNW,337,0.0,-999.0,90,-99.99,,,-99.99,,2013-06-05 11:32:00,
2013-06-05 05:42:00,32.0,29.0,30.23,NNW,337,0.0,-999.0,90,-99.99,,,-99.99,,2013-06-05 11:42:00,
2013-06-05 05:52:00,31.0,28.0,30.23,NNW,337,0.0,-999.0,88,-99.99,,,-99.99,,2013-06-05 11:52:00,
2013-06-05 06:01:00,30.0,27.0,30.24,NNW,338,0.0,-999.0,88,-99.99,,,-99.99,,2013-06-05 12:01:00,
2013-06-05 06:12:00,30.0,27.0,30.24,NNW,338,0.0,-999.0,88,-99.99,,,-99.99,,2013-06-05 12:12:00,
2013-06-05 06:22:00,29.0,26.0,30.24,NE,37,0.0,-999.0,89,-99.99,,,-99.99,,2013-06-05 12:22:00,
2013-06-05 06:32:00,31.0,28.0,30.24,NE,37,0.0,-999.0,89,-99.99,,,-99.99,,2013-06-05 12:32:00,
2013-06-05 06:43:00,31.0,28.0,30.24,NE,37,0.0,-999.0,89,-99.99,,,-99.99,,2013-06-05 12:43:00,
2013-06-05 06:52:00,33.0,30.0,30.24,NE,37,0.0,-999.0,87,-99.99,,,-99.99,,2013-06-05 12:52:00,
2013-06-05 07:02:00,35.0,31.0,30.25,NE,37,0.0,-999.0,85,-99.99,,,-99.99,,2013-06-05 13:02:00,
2013-06-05 07:11:00,35.0,31.0,30.25,NE,37,0.0,-999.0,85,-99.99,,,-99.99,,2013-06-05 13:11:00,
2013-06-05 07:22:00,37.0,32.0,30.24,NNE,28,1.0,-999.0,83,-99.99,,,-99.99,,2013-06-05 13:22:00,
2013-06-05 07:32:00,39.0,33.0,30.24,North,5,2.0,-999.0,80,-99.99,,,-99.99,,2013-06-05 13:32:00,
2013-06-05 07:42:00,40.0,33.0,30.24,North,5,0.0,-999.0,77,-99.99,,,-99.99,,2013-06-05 13:42:00,
2013-06-05 07:52:00,40.0,33.0,30.24,North,5,0.0,-999.0,77,-99.99,,,-99.99,,2013-06-05 13:52:00,
2013-06-05 08:01:00,42.0,34.0,30.25,NNW,329,0.0,-999.0,74,-99.99,,,-99.99,,2013-06-05 14:01:00,
2013-06-05 08:22:00,44.0,34.0,30.24,NNW,344,0.0,-999.0,68,-99.99,,,-99.99,,2013-06-05 14:22:00,
2013-06-05 08:31:00,46.0,36.0,30.24,WSW,255,0.0,-999.0,67,-99.99,,,-99.99,,2013-06-05 14:31:00,
2013-06-05 08:42:00,46.0,36.0,30.24,WSW,255,0.0,-999.0,67,-99.99,,,-99.99,,2013-06-05 14:42:00,
2013-06-05 08:52:00,46.0,36.0,30.24,SW,220,2.0,-999.0,68,-99.99,,,-99.99,,2013-06-05 14:52:00,
2013-06-05 09:01:00,47.0,35.0,30.24,West,277,0.0,-999.0,63,-99.99,,,-99.99,,2013-06-05 15:01:00,
2013-06-05 09:11:00,47.0,35.0,30.24,West,277,0.0,-999.0,63,-99.99,,,-99.99,,2013-06-05 15:11:00,
2013-06-05 09:22:00,49.0,36.0,30.24,SSE,158,0.0,-999.0,61,-99.99,,,-99.99,,2013-06-05 15:22:00,
2013-06-05 09:33:00,50.0,36.0,30.24,SSW,199,1.0,-999.0,59,-99.99,,,-99.99,,2013-06-05 15:33:00,
2013-06-05 09:42:00,50.0,37.0,30.26,ESE,113,1.0,-999.0,60,-99.99,,,-99.99,,2013-06-05 15:42:00,
2013-06-05 09:53:00,50.0,37.0,30.26,ESE,113,1.0,-999.0,60,-99.99,,,-99.99,,2013-06-05 15:53:00,
2013-06-05 10:03:00,53.0,38.0,30.25,ESE,117,1.0,-999.0,57,-99.99,,,-99.99,,2013-06-05 16:03:00,
2013-06-05 10:22:00,53.0,36.0,30.25,South,179,1.0,-999.0,52,-99.99,,,-99.99,,2013-06-05 16:22:00,
2013-06-05 10:32:00,55.0,36.0,30.24,South,186,2.0,-999.0,49,-99.99,,,-99.99,,2013-06-05 16:32:00,
2013-06-05 10:42:00,55.0,35.0,30.24,SE,145,1.0,-999.0,47,-99.99,,,-99.99,,2013-06-05 16:42:00,
2013-06-05 10:54:00,55.0,35.0,30.24,SE,145,1.0,-999.0,47,-99.99,,,-99.99,,2013-06-05 16:54:00,
2013-06-05 11:02:00,57.0,38.0,30.23,SSW,194,2.0,-999.0,48,-99.99,,,-99.99,,2013-06-05 17:02:00,
2013-06-05 11:12:00,57.0,38.0,30.23,SSW,194,2.0,-999.0,48,-99.99,,,-99.99,,2013-06-05 17:12:00,
2013-06-05 11:22:00,57.0,36.0,30.22,SE,133,3.0,-999.0,46,-99.99,,,-99.99,,2013-06-05 17:22:00,
2013-06-05 11:32:00,58.0,36.0,30.22,SW,224,3.0,-999.0,44,-99.99,,,-99.99,,2013-06-05 17:32:00,
2013-06-05 11:42:00,59.0,39.0,30.21,South,190,3.0,-999.0,47,-99.99,,,-99.99,,2013-06-05 17:42:00,
2013-06-05 11:52:00,59.0,39.0,30.21,South,190,3.0,-999.0,47,-99.99,,,-99.99,,2013-06-05 17:52:00,
2013-06-05 12:02:00,60.0,39.0,30.21,SE,142,3.0,-999.0,45,-99.99,,,-99.99,,2013-06-05 18:02:00,
2013-06-05 12:12:00,60.0,39.0,30.21,SE,142,3.0,-999.0,45,-99.99,,,-99.99,,2013-06-05 18:12:00,
2013-06-05 12:22:00,61.0,38.0,30.20,ENE,66,2.0,-999.0,43,-99.99,,,-99.99,,2013-06-05 18:22:00,
2013-06-05 12:32:00,62.0,39.0,30.19,SSW,213,2.0,-999.0,43,-99.99,,,-99.99,,2013-06-05 18:32:00,
2013-06-05 12:42:00,64.0,38.0,30.19,East,101,2.0,-999.0,38,-99.99,,,-99.99,,2013-06-05 18:42:00,
2013-06-05 12:52:00,64.0,38.0,30.19,East,101,2.0,-999.0,38,-99.99,,,-99.99,,2013-06-05 18:52:00,
2013-06-05 13:02:00,65.0,39.0,30.19,SW,232,1.0,-999.0,39,-99.99,,,-99.99,,2013-06-05 19:02:00,
2013-06-05 13:12:00,65.0,39.0,30.19,SW,232,1.0,-999.0,39,-99.99,,,-99.99,,2013-06-05 19:12:00,
2013-06-05 13:23:00,65.0,37.0,30.18,NNE,17,2.0,-999.0,36,-99.99,,,-99.99,,2013-06-05 19:23:00,
2013-06-05 13:32:00,66.0,38.0,30.18,West,268,6.0,-999.0,35,-99.99,,,-99.99,,2013-06-05 19:32:00,
2013-06-05 13:42:00,66.0,38.0,30.18,West,268,6.0,-999.0,35,-99.99,,,-99.99,,2013-06-05 19:42:00,
2013-06-05 13:52:00,66.0,35.0,30.18,SSW,205,7.0,-999.0,32,-99.99,,,-99.99,,2013-06-05 19:52:00,
2013-06-05 14:02:00,66.0,32.0,30.18,South,190,7.0,-999.0,28,-99.99,,,-99.99,,2013-06-05 20:02:00,
2013-06-05 14:12:00,66.0,30.0,30.17,West,280,6.0,-999.0,26,-99.99,,,-99.99,,2013-06-05 20:12:00,
2013-06-05 14:22:00,66.0,30.0,30.17,West,280,6.0,-999.0,26,-99.99,,,-99.99,,2013-06-05 20:22:00,
2013-06-05 14:32:00,67.0,31.0,30.16,West,280,8.0,-999.0,26,-99.99,,,-99.99,,2013-06-05 20:32:00,
2013-06-05 14:42:00,67.0,33.0,30.16,NW,317,8.0,-999.0,28,-99.99,,,-99.99,,2013-06-05 20:42:00,
2013-06-05 14:52:00,67.0,33.0,30.16,NW,317,8.0,-999.0,28,-99.99,,,-99.99,,2013-06-05 20:52:00,
2013-06-05 15:02:00,67.0,30.0,30.16,West,268,9.0,-999.0,25,-99.99,,,-99.99,,2013-06-05 21:02:00,
2013-06-05 15:11:00,68.0,35.0,30.15,WSW,246,7.0,-999.0,30,-99.99,,,-99.99,,2013-06-05 21:11:00,
2013-06-05 15:22:00,68.0,35.0,30.15,WSW,246,7.0,-999.0,30,-99.99,,,-99.99,,2013-06-05 21:22:00,
2013-06-05 15:33:00,69.0,35.0,30.15,SSW,213,8.0,-999.0,28,-99.99,,,-99.99,,2013-06-05 21:33:00,
2013-06-05 15:43:00,69.0,35.0,30.14,WSW,242,9.0,-999.0,28,-99.99,,,-99.99,,2013-06-05 21:43:00,
2013-06-05 15:53:00,69.0,35.0,30.14,WSW,242,9.0,-999.0,28,-99.99,,,-99.99,,2013-06-05 21:53:00,
2013-06-05 16:02:00,69.0,35.0,30.14,West,269,8.0,-999.0,28,-99.99,,,-99.99,,2013-06-05 22:02:00,
2013-06-05 16:12:00,69.0,35.0,30.14,West,269,8.0,-999.0,28,-99.99,,,-99.99,,2013-06-05 22:12:00,
2013-06-05 16:22:00,69.0,35.0,30.14,West,275,8.0,-999.0,29,-99.99,,,-99.99,,2013-06-05 22:22:00,
2013-06-05 16:32:00,69.0,35.0,30.16,WNW,282,6.0,-999.0,28,-99.99,,,-99.99,,2013-06-05 22:32:00,
2013-06-05 16:42:00,70.0,37.0,30.16,West,269,8.0,-999.0,30,-99.99,,,-99.99,,2013-06-05 22:42:00,
2013-06-05 16:52:00,70.0,37.0,30.16,West,269,8.0,-999.0,30,-99.99,,,-99.99,,2013-06-05 22:52:00,
2013-06-05 17:02:00,69.0,38.0,30.15,NW,304,8.0,-999.0,32,-99.99,,,-99.99,,2013-06-05 23:02:00,
2013-06-05 17:12:00,69.0,37.0,30.15,SW,225,6.0,-999.0,31,-99.99,,,-99.99,,2013-06-05 23:12:00,
2013-06-05 17:22:00,69.0,37.0,30.15,SW,225,6.0,-999.0,31,-99.99,,,-99.99,,2013-06-05 23:22:00,
2013-06-05 17:32:00,69.0,37.0,30.15,SSW,212,7.0,-999.0,31,-99.99,,,-99.99,,2013-06-05 23:32:00,
2013-06-05 17:42:00,69.0,37.0,30.15,SSW,212,7.0,-999.0,31,-99.99,,,-99.99,,2013-06-05 23:42:00,
2013-06-05 17:53:00,69.0,35.0,30.14,WNW,289,8.0,-999.0,28,-99.99,,,-99.99,,2013-06-05 23:53:00,
2013-06-05 18:02:00,69.0,35.0,30.14,WSW,246,7.0,-999.0,29,-99.99,,,-99.99,,2013-06-06 00:02:00,
2013-06-05 18:11:00,69.0,35.0,30.14,WSW,246,7.0,-999.0,29,-99.99,,,-99.99,,2013-06-06 00:11:00,
2013-06-05 18:22:00,69.0,36.0,30.14,WNW,294,6.0,-999.0,30,-99.99,,,-99.99,,2013-06-06 00:22:00,
2013-06-05 18:32:00,68.0,34.0,30.13,WNW,286,7.0,-999.0,28,-99.99,,,-99.99,,2013-06-06 00:32:00,
2013-06-05 18:42:00,68.0,34.0,30.13,WNW,286,7.0,-999.0,28,-99.99,,,-99.99,,2013-06-06 00:42:00,
2013-06-05 18:52:00,68.0,35.0,30.13,WNW,286,7.0,-999.0,30,-99.99,,,-99.99,,2013-06-06 00:52:00,
2013-06-05 19:02:00,68.0,35.0,30.13,WSW,254,7.0,-999.0,29,-99.99,,,-99.99,,2013-06-06 01:02:00,
2013-06-05 19:11:00,68.0,35.0,30.13,WSW,254,7.0,-999.0,29,-99.99,,,-99.99,,2013-06-06 01:11:00,
2013-06-05 19:22:00,68.0,34.0,30.13,WSW,257,5.0,-999.0,28,-99.99,,,-99.99,,2013-06-06 01:22:00,
2013-06-05 19:32:00,68.0,35.0,30.14,NW,311,2.0,-999.0,29,-99.99,,,-99.99,,2013-06-06 01:32:00,
2013-06-05 19:42:00,67.0,34.0,30.13,WNW,292,2.0,-999.0,29,-99.99,,,-99.99,,2013-06-06 01:42:00,
2013-06-05 19:52:00,67.0,34.0,30.13,WNW,292,2.0,-999.0,29,-99.99,,,-99.99,,2013-06-06 01:52:00,
2013-06-05 20:01:00,67.0,33.0,30.13,NW,317,1.0,-999.0,28,-99.99,,,-99.99,,2013-06-06 02:01:00,
2013-06-05 20:11:00,67.0,33.0,30.13,NW,317,1.0,-999.0,28,-99.99,,,-99.99,,2013-06-06 02:11:00,
2013-06-05 20:22:00,67.0,35.0,30.13,West,259,1.0,-999.0,30,-99.99,,,-99.99,,2013-06-06 02:22:00,
2013-06-05 20:32:00,64.0,34.0,30.13,NW,307,2.0,-999.0,32,-99.99,,,-99.99,,2013-06-06 02:32:00,
2013-06-05 20:42:00,64.0,34.0,30.13,NW,307,2.0,-999.0,32,-99.99,,,-99.99,,2013-06-06 02:42:00,
2013-06-05 20:52:00,64.0,34.0,30.13,NW,307,2.0,-999.0,32,-99.99,,,-99.99,,2013-06-06 02:52:00,
2013-06-05 21:02:00,59.0,34.0,30.13,West,266,0.0,-999.0,39,-99.99,,,-99.99,,2013-06-06 03:02:00,
2013-06-05 21:12:00,59.0,34.0,30.13,West,266,0.0,-999.0,39,-99.99,,,-99.99,,2013-06-06 03:12:00,
2013-06-05 21:22:00,58.0,33.0,30.14,SW,232,0.0,-999.0,39,-99.99,,,-99.99,,2013-06-06 03:22:00,
2013-06-05 21:33:00,57.0,34.0,30.14,SW,232,0.0,-999.0,41,-99.99,,,-99.99,,2013-06-06 03:33:00,
2013-06-05 21:43:00,57.0,34.0,30.14,SW,232,0.0,-999.0,41,-99.99,,,-99.99,,2013-06-06 03:43:00,
2013-06-05 21:52:00,56.0,34.0,30.14,WSW,243,3.0,-999.0,43,-99.99,,,-99.99,,2013-06-06 03:52:00,
2013-06-05 22:02:00,55.0,34.0,30.15,West,273,2.0,-999.0,45,-99.99,,,-99.99,,2013-06-06 04:02:00,
2013-06-05 22:13:00,55.0,34.0,30.15,West,273,2.0,-999.0,45,-99.99,,,-99.99,,2013-06-06 04:13:00,
2013-06-05 22:22:00,55.0,35.0,30.15,SW,219,1.0,-999.0,47,-99.99,,,-99.99,,2013-06-06 04:22:00,
2013-06-05 22:33:00,53.0,35.0,30.15,SW,219,0.0,-999.0,50,-99.99,,,-99.99,,2013-06-06 04:33:00,
2013-06-05 22:42:00,52.0,35.0,30.15,SW,219,0.0,-999.0,52,-99.99,,,-99.99,,2013-06-06 04:42:00,
2013-06-05 22:53:00,52.0,35.0,30.15,SW,219,0.0,-999.0,52,-99.99,,,-99.99,,2013-06-06 04:53:00,
2013-06-05 23:02:00,50.0,34.0,30.15,SW,219,0.0,-999.0,55,-99.99,,,-99.99,,2013-06-06 05:02:00,
2013-06-05 23:12:00,50.0,34.0,30.15,SW,219,0.0,-999.0,55,-99.99,,,-99.99,,2013-06-06 05:12:00,
2013-06-05 23:22:00,49.0,33.0,30.15,SW,214,0.0,-999.0,54,-99.99,,,-99.99,,2013-06-06 05:22:00,
2013-06-05 23:32:00,46.0,34.0,30.15,SW,214,0.0,-999.0,62,-99.99,,,-99.99,,2013-06-06 05:32:00,
2013-06-05 23:42:00,46.0,34.0,30.15,SW,214,0.0,-999.0,62,-99.99,,,-99.99,,2013-06-06 05:42:00,
2013-06-05 23:52:00,43.0,31.0,30.15,SW,214,0.0,-999.0,63,-99.99,,,-99.99,,2013-06-06 05:52:00,